Terminal Aerodrome Forecast
Issued by NWS Corpus Christi, TX

Home | Current Version | Previous Version | Text Only | Print | Product List | Glossary On
Versions: 1 2 3 4 5 6 7 8 9 10 11 12 13 14
738
FTUS44 KCRP 241742
TAFCRP
TAF
KCRP 241742Z 2418/2518 14011KT P6SM SCT025
     FM242000 11014G20KT P6SM VCTS SCT035CB BKN250
     FM250200 12010KT P6SM SCT020 BKN250
     FM250800 12007KT P6SM VCSH BKN015 BKN150
     FM251400 09006KT P6SM VCSH BKN035=

USA.gov is the U.S. government's official web portal to all federal, state and local government web resources and services.